createdAt,value
2022-10-31T03:50:45.067Z,21.97
2022-10-31T03:53:19.276Z,23.10
2022-10-31T03:55:53.302Z,25.00
2022-10-31T03:58:26.454Z,27.83
2022-10-31T04:00:58.191Z,22.47
2022-10-31T04:03:29.627Z,19.97
2022-10-31T04:06:04.349Z,19.67
2022-10-31T04:08:36.273Z,20.83
2022-10-31T04:11:06.588Z,19.03
2022-10-31T04:13:39.541Z,24.03
2022-10-31T04:16:12.631Z,22.70
2022-10-31T04:18:45.024Z,22.17
2022-10-31T04:21:16.746Z,20.37
2022-10-31T04:23:45.170Z,20.47
2022-10-31T04:26:14.804Z,20.20
2022-10-31T04:28:43.856Z,23.90
2022-10-31T04:31:14.358Z,19.80
2022-10-31T04:33:43.164Z,25.90
2022-10-31T04:36:13.039Z,24.10
2022-10-31T04:38:42.937Z,19.00
2022-10-31T04:41:11.460Z,20.77
2022-10-31T04:43:40.119Z,26.03
2022-10-31T04:46:08.535Z,21.43
2022-10-31T04:48:37.436Z,20.83
2022-10-31T04:51:06.254Z,21.83
2022-10-31T04:53:34.615Z,21.30
2022-10-31T04:56:04.617Z,19.60
2022-10-31T04:58:32.879Z,22.20
2022-10-31T05:01:01.437Z,19.10
2022-10-31T05:03:29.865Z,19.07
2022-10-31T05:05:58.153Z,18.70
2022-10-31T05:08:26.618Z,20.97
2022-10-31T05:10:55.015Z,21.40
2022-10-31T05:13:24.650Z,19.77
2022-10-31T05:15:53.135Z,17.57
2022-10-31T05:18:21.406Z,19.37
2022-10-31T05:20:49.918Z,17.07
2022-10-31T05:23:18.432Z,23.00
2022-10-31T05:25:46.774Z,20.73
2022-10-31T05:28:15.199Z,23.37
2022-10-31T05:30:44.893Z,20.00
2022-10-31T05:33:13.161Z,23.93
2022-10-31T05:35:41.602Z,23.10
2022-10-31T05:38:09.918Z,21.77
2022-10-31T05:40:38.149Z,21.03
2022-10-31T05:43:06.558Z,21.00
2022-10-31T05:45:34.869Z,23.47
2022-10-31T05:48:05.685Z,23.67
2022-10-31T05:50:34.555Z,19.87
2022-10-31T05:53:05.537Z,23.73
2022-10-31T05:55:34.450Z,17.40
2022-10-31T05:58:03.037Z,19.23
2022-10-31T06:00:31.813Z,17.70
2022-10-31T06:03:01.648Z,23.57
2022-10-31T06:05:32.347Z,24.27
2022-10-31T06:08:01.428Z,22.63
2022-10-31T06:10:30.557Z,25.50
2022-10-31T06:12:58.866Z,24.83
2022-10-31T06:15:27.324Z,21.80
2022-10-31T06:18:04.357Z,19.33
2022-10-31T06:20:35.392Z,18.47
2022-10-31T06:23:04.265Z,22.47
2022-10-31T06:25:33.961Z,17.27
2022-10-31T06:28:03.194Z,19.67
2022-10-31T06:30:31.503Z,20.97
2022-10-31T06:33:05.531Z,20.07
2022-10-31T06:35:47.019Z,17.47
2022-10-31T06:38:15.487Z,22.53
2022-10-31T06:40:44.482Z,19.40
2022-10-31T06:43:15.906Z,23.13
2022-10-31T06:45:44.393Z,21.87
2022-10-31T06:48:17.313Z,21.63
2022-10-31T06:50:48.099Z,21.67
2022-10-31T06:53:16.817Z,23.60
2022-10-31T06:55:45.391Z,17.77
2022-10-31T06:58:14.513Z,22.80
2022-10-31T07:00:42.858Z,21.27
2022-10-31T07:03:14.242Z,19.37
2022-10-31T07:05:43.533Z,18.73
2022-10-31T07:08:15.539Z,19.10
2022-10-31T07:10:45.296Z,21.53
2022-10-31T07:13:16.047Z,16.03
2022-10-31T07:15:46.220Z,15.73
2022-10-31T07:18:15.827Z,14.57
2022-10-31T07:20:44.614Z,20.60
2022-10-31T07:23:15.841Z,18.90
2022-10-31T07:25:44.819Z,18.43
2022-10-31T07:28:13.879Z,16.13
2022-10-31T07:30:42.754Z,15.87
2022-10-31T07:33:11.232Z,15.73
2022-10-31T07:35:39.832Z,16.90
2022-10-31T07:38:13.775Z,18.73
2022-10-31T07:40:43.390Z,15.67
2022-10-31T07:43:14.497Z,15.07
2022-10-31T07:45:47.838Z,17.03
2022-10-31T07:48:16.616Z,19.03
2022-10-31T07:50:45.626Z,16.73
2022-10-31T07:53:16.779Z,13.70
2022-10-31T07:55:46.156Z,14.13
2022-10-31T07:58:17.125Z,13.43
2022-10-31T08:00:48.802Z,14.90
2022-10-31T08:03:19.232Z,19.50
2022-10-31T08:05:48.298Z,19.63
2022-10-31T08:08:18.657Z,20.00
2022-10-31T08:10:47.184Z,15.73
2022-10-31T08:13:16.613Z,19.67
2022-10-31T08:15:45.698Z,22.60
2022-10-31T08:18:15.965Z,17.53
2022-10-31T08:20:45.659Z,26.13
2022-10-31T08:23:15.888Z,23.50
2022-10-31T08:25:48.007Z,40.97
2022-10-31T08:28:17.144Z,36.77
2022-10-31T08:30:47.172Z,38.90
2022-10-31T08:33:18.995Z,34.13
2022-10-31T08:35:48.727Z,29.70
2022-10-31T08:38:17.330Z,28.33
2022-10-31T08:40:51.467Z,27.13
2022-10-31T08:43:21.095Z,24.23
2022-10-31T08:45:52.187Z,24.17
2022-10-31T08:48:20.503Z,25.60
2022-10-31T08:50:49.408Z,22.33
2022-10-31T08:53:20.016Z,21.33
2022-10-31T08:55:49.998Z,24.97
2022-10-31T08:58:21.401Z,22.23
2022-10-31T09:00:53.127Z,22.37
2022-10-31T09:03:23.748Z,23.97
2022-10-31T09:05:52.842Z,26.07
2022-10-31T09:08:21.306Z,29.07
2022-10-31T09:10:51.393Z,22.90
2022-10-31T09:13:23.484Z,27.93
2022-10-31T09:15:55.496Z,22.47
2022-10-31T09:18:25.289Z,23.43
2022-10-31T09:20:55.221Z,23.00
2022-10-31T09:23:25.396Z,27.30
2022-10-31T09:25:56.330Z,19.47
2022-10-31T09:28:25.980Z,19.07
2022-10-31T09:31:00.433Z,20.87
2022-10-31T09:33:29.024Z,22.03
2022-10-31T09:35:57.518Z,28.93
2022-10-31T09:38:26.536Z,27.87
2022-10-31T09:41:07.673Z,45.07
2022-10-31T09:43:49.090Z,51.67
2022-10-31T09:46:26.916Z,49.33
2022-10-31T09:49:26.130Z,32.97
2022-10-31T09:52:01.684Z,40.80
2022-10-31T09:54:36.463Z,33.10
2022-10-31T09:57:08.022Z,27.50
2022-10-31T09:59:50.043Z,25.70
2022-10-31T10:02:30.177Z,27.80
2022-10-31T10:05:02.076Z,29.03
2022-10-31T10:07:41.016Z,29.47
2022-10-31T10:10:19.306Z,24.70
2022-10-31T10:13:09.436Z,31.03
2022-10-31T10:16:24.183Z,31.97
2022-10-31T10:19:07.834Z,29.80
2022-10-31T10:21:45.830Z,22.80
2022-10-31T10:24:27.827Z,26.50
2022-10-31T10:27:07.843Z,29.53
2022-10-31T10:29:43.329Z,25.17
2022-10-31T10:32:16.887Z,29.77
2022-10-31T10:34:50.335Z,29.40
2022-10-31T10:37:30.331Z,32.27
2022-10-31T10:40:10.828Z,25.40
2022-10-31T10:42:57.508Z,24.17
2022-10-31T10:45:45.186Z,28.90
2022-10-31T10:48:18.467Z,25.03
2022-10-31T10:50:51.266Z,21.83
2022-10-31T10:53:50.850Z,44.83
2022-10-31T10:56:25.882Z,26.30
2022-10-31T10:58:56.856Z,36.60
2022-10-31T11:01:27.136Z,32.57
2022-10-31T11:03:55.580Z,38.60
2022-10-31T11:06:27.336Z,32.23
2022-10-31T11:08:56.541Z,26.23
2022-10-31T11:11:31.418Z,28.90
2022-10-31T11:14:05.322Z,26.17
2022-10-31T11:16:41.312Z,26.23
2022-10-31T11:19:18.721Z,46.60
2022-10-31T11:21:53.588Z,48.37
2022-10-31T11:24:24.313Z,30.33
2022-10-31T11:26:53.707Z,35.70
2022-10-31T11:29:26.158Z,25.40
2022-10-31T11:31:59.491Z,20.37
2022-10-31T11:34:34.578Z,29.37
2022-10-31T11:37:11.960Z,29.40
2022-10-31T11:39:45.050Z,51.80
2022-10-31T11:42:14.325Z,27.63
2022-10-31T11:44:45.685Z,36.43
2022-10-31T11:47:19.089Z,23.03
2022-10-31T11:49:50.622Z,31.47
2022-10-31T11:52:22.913Z,26.40
2022-10-31T11:54:55.710Z,31.63
2022-10-31T11:57:29.989Z,25.67
2022-10-31T12:00:01.033Z,31.13
2022-10-31T12:02:31.803Z,28.87
2022-10-31T12:05:06.654Z,30.63
2022-10-31T12:07:35.114Z,36.30
2022-10-31T12:10:03.777Z,44.23
2022-10-31T12:13:00.293Z,28.47
2022-10-31T12:15:34.343Z,35.47
2022-10-31T12:18:25.135Z,38.80
2022-10-31T12:21:06.735Z,33.60
2022-10-31T12:23:47.177Z,36.87
2022-10-31T12:26:21.716Z,34.53
2022-10-31T12:29:11.915Z,36.50
2022-10-31T12:32:05.303Z,20.77
2022-10-31T12:35:06.650Z,24.70
2022-10-31T12:37:50.976Z,23.80
2022-10-31T12:40:37.585Z,27.93
2022-10-31T12:43:23.135Z,21.27
2022-10-31T12:45:56.906Z,22.53
2022-10-31T12:48:58.488Z,22.80
2022-10-31T12:51:40.085Z,28.87
2022-10-31T12:54:44.144Z,26.13
2022-10-31T12:57:25.130Z,29.70
2022-10-31T12:59:59.300Z,24.50
2022-10-31T13:02:32.336Z,22.00
2022-10-31T13:05:05.004Z,26.10
2022-10-31T13:07:40.617Z,22.40
2022-10-31T13:10:17.505Z,30.53
2022-10-31T13:12:48.098Z,18.40
2022-10-31T13:15:21.313Z,17.73
2022-10-31T13:17:52.222Z,20.27
2022-10-31T13:20:26.487Z,19.83
2022-10-31T13:23:13.383Z,15.97
2022-10-31T13:25:51.654Z,19.93
2022-10-31T13:28:31.535Z,18.27
2022-10-31T13:30:59.999Z,19.07
2022-10-31T13:33:32.440Z,18.63
2022-10-31T13:36:18.122Z,17.93
2022-10-31T13:38:54.315Z,19.00
2022-10-31T13:41:36.001Z,18.50
2022-10-31T13:44:18.341Z,22.10
2022-10-31T13:46:47.635Z,19.23
2022-10-31T13:49:40.381Z,22.50
2022-10-31T13:52:17.479Z,18.93
2022-10-31T13:54:49.220Z,20.10
2022-10-31T13:57:24.659Z,20.93
2022-10-31T13:59:55.789Z,29.23
2022-10-31T14:02:28.954Z,20.67
2022-10-31T14:05:02.511Z,22.93
2022-10-31T14:07:32.766Z,27.00
2022-10-31T14:10:06.868Z,24.47
2022-10-31T14:12:41.386Z,26.53
2022-10-31T14:15:20.163Z,32.90
2022-10-31T14:17:51.370Z,33.70
2022-10-31T14:20:36.305Z,35.03
2022-10-31T14:23:41.727Z,30.10
2022-10-31T14:26:23.611Z,36.93
2022-10-31T14:28:52.964Z,33.30
2022-10-31T14:31:37.730Z,39.37
2022-10-31T14:34:24.590Z,45.07
2022-10-31T14:37:20.911Z,39.60
2022-10-31T14:40:10.776Z,38.60
2022-10-31T14:43:01.349Z,41.20
2022-10-31T14:45:39.569Z,37.70
2022-10-31T14:48:32.568Z,40.47
2022-10-31T14:51:03.116Z,37.37
2022-10-31T14:53:35.478Z,40.10
2022-10-31T14:56:06.892Z,44.87
2022-10-31T14:58:40.644Z,41.33
2022-10-31T15:01:10.000Z,53.53
2022-10-31T15:03:44.755Z,44.03
2022-10-31T15:06:26.991Z,45.13
2022-10-31T15:08:57.139Z,40.70
2022-10-31T15:11:28.690Z,49.13
2022-10-31T15:14:01.153Z,58.30
2022-10-31T15:16:34.404Z,48.17
2022-10-31T15:19:07.498Z,50.87
2022-10-31T15:21:37.890Z,52.13
2022-10-31T15:24:06.719Z,55.83
2022-10-31T15:26:41.600Z,51.90
2022-10-31T15:29:16.723Z,54.27
2022-10-31T15:31:57.004Z,54.13
2022-10-31T15:34:32.406Z,52.80
2022-10-31T15:37:01.026Z,62.03
2022-10-31T15:39:29.779Z,56.07
2022-10-31T15:42:00.336Z,64.70
2022-10-31T15:44:33.573Z,55.90
2022-10-31T15:47:04.346Z,60.63
2022-10-31T15:49:42.221Z,65.50
2022-10-31T15:52:17.044Z,57.87
2022-10-31T15:54:53.133Z,57.53
2022-10-31T15:57:21.619Z,58.50
2022-10-31T15:59:53.246Z,73.00
2022-10-31T16:02:25.821Z,72.00
2022-10-31T16:04:57.865Z,69.90
2022-10-31T16:07:28.482Z,68.93
2022-10-31T16:10:01.476Z,69.17
2022-10-31T16:12:36.927Z,77.47
2022-10-31T16:15:09.155Z,77.27
2022-10-31T16:17:43.164Z,77.03
2022-10-31T16:20:23.292Z,76.10
2022-10-31T16:22:54.534Z,82.30
2022-10-31T16:25:27.766Z,86.53
2022-10-31T16:28:03.984Z,92.30
2022-10-31T16:30:44.037Z,85.80
2022-10-31T16:33:32.022Z,90.80
2022-10-31T16:36:29.982Z,97.20
2022-10-31T16:38:51.635Z,96.37
2022-10-31T16:41:20.773Z,103.97
2022-10-31T16:43:52.412Z,97.50
2022-10-31T16:46:25.735Z,90.80
2022-10-31T16:48:57.513Z,119.27
2022-10-31T16:51:26.143Z,107.10
2022-10-31T16:53:56.085Z,118.50
2022-10-31T16:56:30.073Z,109.53
2022-10-31T16:59:12.070Z,110.27
2022-10-31T17:01:48.285Z,101.07
2022-10-31T17:04:22.713Z,102.77
2022-10-31T17:06:52.573Z,101.27
2022-10-31T17:09:21.072Z,104.90
2022-10-31T17:11:52.676Z,89.20
2022-10-31T17:14:22.155Z,98.07
2022-10-31T17:17:01.920Z,117.00
2022-10-31T17:19:30.393Z,99.00
2022-10-31T17:21:58.970Z,111.27
2022-10-31T17:24:28.645Z,95.50
2022-10-31T17:26:57.141Z,91.17
2022-10-31T17:29:25.581Z,104.23
2022-10-31T17:31:55.821Z,101.67
2022-10-31T17:34:24.325Z,105.17
2022-10-31T17:36:53.572Z,111.23
2022-10-31T17:39:22.890Z,109.07
2022-10-31T17:41:52.840Z,102.77
2022-10-31T17:44:21.306Z,91.83
2022-10-31T17:46:52.054Z,98.00
2022-10-31T17:49:27.073Z,91.43
2022-10-31T17:51:55.732Z,95.53
2022-10-31T17:54:24.492Z,102.20
2022-10-31T17:56:55.083Z,95.83
2022-10-31T17:59:30.313Z,105.53
2022-10-31T18:02:00.678Z,96.97
2022-10-31T18:04:30.736Z,105.87
2022-10-31T18:07:06.054Z,132.13
2022-10-31T18:09:34.721Z,109.47
2022-10-31T18:12:04.249Z,115.90
2022-10-31T18:14:32.792Z,103.00
2022-10-31T18:17:01.160Z,127.33
2022-10-31T18:19:32.377Z,133.60
2022-10-31T18:22:01.039Z,129.50
2022-10-31T18:24:29.736Z,118.23
2022-10-31T18:26:58.311Z,110.20
2022-10-31T18:29:26.941Z,117.97
2022-10-31T18:31:55.634Z,109.00
2022-10-31T18:34:23.949Z,111.20
2022-10-31T18:36:53.847Z,111.17
2022-10-31T18:39:22.420Z,115.50
2022-10-31T18:41:50.981Z,108.40
2022-10-31T18:44:19.290Z,103.10
2022-10-31T18:46:47.803Z,113.47
2022-10-31T18:49:22.821Z,120.33
2022-10-31T18:51:51.690Z,102.00
2022-10-31T18:54:21.648Z,110.00
2022-10-31T18:56:50.104Z,114.63
2022-10-31T18:59:18.617Z,119.20
2022-10-31T19:01:47.784Z,118.20
2022-10-31T19:04:19.154Z,109.23
2022-10-31T19:06:48.805Z,114.50
2022-10-31T19:09:20.703Z,109.87
2022-10-31T19:11:49.265Z,102.93
2022-10-31T19:14:23.560Z,108.93
2022-10-31T19:16:55.203Z,112.03
2022-10-31T19:19:24.738Z,100.87
2022-10-31T19:21:53.049Z,108.97
2022-10-31T19:24:22.782Z,108.63
2022-10-31T19:26:51.747Z,102.33
2022-10-31T19:29:21.925Z,97.70
2022-10-31T19:31:50.682Z,102.83
2022-10-31T19:34:24.204Z,103.33
2022-10-31T19:36:53.959Z,103.67
2022-10-31T19:39:24.018Z,107.03
2022-10-31T19:41:53.745Z,101.47
2022-10-31T19:44:22.479Z,84.17
2022-10-31T19:46:54.351Z,83.33
2022-10-31T19:49:25.326Z,98.27
2022-10-31T19:51:54.391Z,90.40
2022-10-31T19:54:32.289Z,92.43
2022-10-31T19:57:00.657Z,90.80
2022-10-31T19:59:29.151Z,90.87
2022-10-31T20:02:03.395Z,81.90
2022-10-31T20:04:35.555Z,79.90
2022-10-31T20:07:04.297Z,95.17
2022-10-31T20:09:34.068Z,93.57
2022-10-31T20:12:05.364Z,97.27
2022-10-31T20:14:35.001Z,85.77
2022-10-31T20:17:09.656Z,82.80
2022-10-31T20:19:38.660Z,99.90
2022-10-31T20:22:07.415Z,80.20
2022-10-31T20:24:37.453Z,82.57
2022-10-31T20:27:06.057Z,78.70
2022-10-31T20:29:34.525Z,82.40
2022-10-31T20:32:04.517Z,93.33
2022-10-31T20:34:33.330Z,80.33
2022-10-31T20:37:01.783Z,84.53
2022-10-31T20:39:30.361Z,121.57
2022-10-31T20:42:06.753Z,94.97
2022-10-31T20:44:41.016Z,87.30
2022-10-31T20:47:11.030Z,86.37
2022-10-31T20:49:39.546Z,77.00
2022-10-31T20:52:07.904Z,94.10
2022-10-31T20:54:43.168Z,83.00
2022-10-31T20:57:17.465Z,99.83
2022-10-31T20:59:53.414Z,136.63
2022-10-31T21:02:21.813Z,160.83
2022-10-31T21:04:51.481Z,94.60
2022-10-31T21:07:20.815Z,97.33
2022-10-31T21:09:50.685Z,87.87
2022-10-31T21:12:22.177Z,81.00
2022-10-31T21:14:50.900Z,77.37
2022-10-31T21:17:19.392Z,88.63
2022-10-31T21:19:49.267Z,80.93
2022-10-31T21:22:23.800Z,88.53
2022-10-31T21:24:55.996Z,86.67
2022-10-31T21:27:28.212Z,79.23
2022-10-31T21:29:56.554Z,81.90
2022-10-31T21:32:29.729Z,76.80
2022-10-31T21:34:58.104Z,88.33
2022-10-31T21:37:26.904Z,94.00
2022-10-31T21:40:01.239Z,76.87
2022-10-31T21:42:36.311Z,82.77
2022-10-31T21:45:11.098Z,77.03
2022-10-31T21:47:39.647Z,74.57
2022-10-31T21:50:14.868Z,73.50
2022-10-31T21:52:43.451Z,96.87
2022-10-31T21:55:12.166Z,79.03
2022-10-31T21:57:43.118Z,80.23
2022-10-31T22:00:16.981Z,73.27
2022-10-31T22:02:45.599Z,77.60
2022-10-31T22:05:14.226Z,72.17
2022-10-31T22:07:42.479Z,81.73
2022-10-31T22:10:11.285Z,80.27
2022-10-31T22:12:39.703Z,75.73
2022-10-31T22:15:10.479Z,82.63
2022-10-31T22:17:38.978Z,73.67
2022-10-31T22:20:09.011Z,74.27
2022-10-31T22:22:37.446Z,71.17
2022-10-31T22:25:06.366Z,80.77
2022-10-31T22:27:36.893Z,72.30
2022-10-31T22:30:06.236Z,67.43
2022-10-31T22:32:35.930Z,77.13
2022-10-31T22:35:04.433Z,83.63
2022-10-31T22:37:32.772Z,68.37
2022-10-31T22:40:02.383Z,67.80
2022-10-31T22:42:30.726Z,73.63
2022-10-31T22:45:04.071Z,80.07
2022-10-31T22:47:32.774Z,84.77
2022-10-31T22:50:03.865Z,80.43
